Time;durP1;ratioP1;P1;durP2;ratioP2;P2;SDS_P1;SDS_P2;PMS_P1;PMS_P2;Temp;Humidity;BMP_temperature;BMP_pressure;BME280_temperature;BME280_humidity;BME280_pressure;Samples;Min_cycle;Max_cycle;Signal;HPM_P1;HPM_P2
2022/04/02 00:01:31;;;;;;;28.10;6.65;;;;;;;12.07;100.00;98238.45;1754225;81;21527;-70
2022/04/02 00:03:59;;;;;;;31.65;6.28;;;;;;;12.09;100.00;98248.03;1749242;81;21046;-70
2022/04/02 00:06:26;;;;;;;37.15;7.67;;;;;;;12.13;100.00;98244.34;1768596;81;21039;-71
2022/04/02 00:08:55;;;;;;;32.08;6.45;;;;;;;12.19;100.00;98243.97;1749565;81;21026;-70
2022/04/02 00:11:22;;;;;;;26.17;6.47;;;;;;;12.25;100.00;98245.77;1766943;81;21015;-72
2022/04/02 00:13:49;;;;;;;29.02;6.55;;;;;;;12.26;100.00;98224.40;1765673;81;21038;-70
2022/04/02 00:16:16;;;;;;;29.15;6.28;;;;;;;12.26;100.00;98214.91;1766178;81;21082;-71
2022/04/02 00:18:44;;;;;;;30.52;6.30;;;;;;;12.27;100.00;98222.81;1767884;81;21041;-71
2022/04/02 00:21:11;;;;;;;26.52;6.55;;;;;;;12.28;100.00;98219.57;1745437;81;21074;-71
2022/04/02 00:23:40;;;;;;;28.67;6.40;;;;;;;12.28;100.00;98215.51;1749624;81;21047;-70
2022/04/02 00:28:48;;;;;;;31.12;6.10;;;;;;;12.28;100.00;98212.27;1658969;85;21169;-69
2022/04/02 00:31:16;;;;;;;30.35;6.75;;;;;;;12.29;100.00;98211.22;1631048;87;21098;-70
2022/04/02 00:33:45;;;;;;;27.95;6.00;;;;;;;12.27;100.00;98215.20;1653054;87;21042;-71
2022/04/02 00:36:14;;;;;;;26.00;6.03;;;;;;;12.22;100.00;98206.41;1654060;86;21118;-70
2022/04/02 00:38:43;;;;;;;30.17;6.28;;;;;;;12.17;100.00;98208.15;1652947;87;21053;-70
2022/04/02 00:41:10;;;;;;;31.07;6.15;;;;;;;12.12;100.00;98210.17;1669417;85;21055;-70
2022/04/02 00:43:42;;;;;;;28.42;6.72;;;;;;;12.08;100.00;98203.55;1667399;85;21590;-70
2022/04/02 00:46:10;;;;;;;27.55;6.03;;;;;;;12.05;100.00;98209.42;1664835;86;21113;-70
2022/04/02 00:48:38;;;;;;;25.27;6.55;;;;;;;11.99;100.00;98196.25;1669607;86;21065;-70
2022/04/02 00:51:07;;;;;;;28.75;6.12;;;;;;;11.96;100.00;98193.45;1669613;86;21610;-70
2022/04/02 00:53:43;;;;;;;31.57;7.65;;;;;;;11.96;100.00;98198.05;1673825;85;21043;-71
2022/04/02 00:56:10;;;;;;;26.85;6.55;;;;;;;11.96;100.00;98193.98;1684800;85;21066;-70
2022/04/02 00:58:39;;;;;;;27.17;5.90;;;;;;;11.98;100.00;98196.48;1666355;85;21058;-70
2022/04/02 01:01:09;;;;;;;22.80;5.70;;;;;;;11.98;100.00;98191.88;1688809;84;21034;-69
2022/04/02 01:03:39;;;;;;;27.45;5.55;;;;;;;11.94;100.00;98194.20;1685691;85;21007;-70
2022/04/02 01:06:10;;;;;;;33.20;6.37;;;;;;;11.92;100.00;98189.55;1690502;84;21078;-69
2022/04/02 01:08:39;;;;;;;25.08;5.53;;;;;;;11.94;100.00;98185.27;1688697;83;21108;-70
2022/04/02 01:11:07;;;;;;;37.38;6.37;;;;;;;11.99;100.00;98193.55;1685882;84;21097;-70
2022/04/02 01:13:36;;;;;;;28.80;6.12;;;;;;;12.03;100.00;98196.09;1685674;84;21042;-69
2022/04/02 01:16:06;;;;;;;22.55;5.47;;;;;;;12.03;100.00;98185.80;1685497;85;21050;-69
2022/04/02 01:18:36;;;;;;;28.23;5.65;;;;;;;12.03;100.00;98187.15;1699764;84;21541;-70
2022/04/02 01:21:03;;;;;;;27.05;5.53;;;;;;;12.01;100.00;98179.78;1686056;84;21156;-71
2022/04/02 01:23:32;;;;;;;27.75;6.30;;;;;;;11.95;100.00;98165.23;1684729;84;21098;-70
2022/04/02 01:26:02;;;;;;;29.35;5.72;;;;;;;11.87;100.00;98173.64;1752275;80;21625;-70
2022/04/02 01:28:34;;;;;;;26.82;6.10;;;;;;;11.74;100.00;98174.09;1782819;80;20974;-70
2022/04/02 01:31:06;;;;;;;29.48;7.12;;;;;;;11.61;100.00;98173.39;1783534;80;21033;-70
2022/04/02 01:33:35;;;;;;;27.42;6.75;;;;;;;11.50;100.00;98169.53;1780153;80;21010;-70
2022/04/02 01:36:08;;;;;;;29.60;6.47;;;;;;;11.42;100.00;98165.75;1781886;80;21040;-70
2022/04/02 01:38:46;;;;;;;26.12;6.45;;;;;;;11.31;100.00;98166.77;1728261;82;21826;-70
2022/04/02 01:41:14;;;;;;;26.52;5.75;;;;;;;11.20;100.00;98168.86;1723511;82;21492;-69
2022/04/02 01:43:43;;;;;;;27.32;6.05;;;;;;;11.12;100.00;98165.91;1722177;83;21046;-69
2022/04/02 01:46:10;;;;;;;24.07;6.05;;;;;;;11.05;100.00;98155.67;1719178;83;21090;-70
2022/04/02 01:48:37;;;;;;;30.68;6.00;;;;;;;10.99;100.00;98155.19;1719420;83;21519;-70
2022/04/02 01:51:06;;;;;;;24.85;5.45;;;;;;;10.92;100.00;98147.65;1721700;83;21026;-70
2022/04/02 01:53:33;;;;;;;25.80;6.37;;;;;;;10.89;100.00;98145.38;1725425;82;21022;-71
2022/04/02 01:56:01;;;;;;;22.58;5.65;;;;;;;10.85;100.00;98138.76;1732805;82;21088;-69
2022/04/02 01:58:31;;;;;;;27.85;5.75;;;;;;;10.82;100.00;98144.09;1720319;82;21081;-71
2022/04/02 02:00:59;;;;;;;28.62;5.65;;;;;;;10.81;100.00;98140.54;1727205;83;21037;-71
2022/04/02 02:03:26;;;;;;;23.98;5.83;;;;;;;10.77;100.00;98139.33;1723196;83;21572;-71
2022/04/02 02:05:54;;;;;;;31.12;6.42;;;;;;;10.73;100.00;98124.61;1726892;83;21107;-70
2022/04/02 02:08:23;;;;;;;26.20;6.00;;;;;;;10.68;100.00;98118.17;1723898;81;21556;-70
2022/04/02 02:11:02;;;;;;;25.00;6.17;;;;;;;10.62;100.00;98113.98;1719687;82;21029;-68
2022/04/02 02:13:35;;;;;;;26.27;7.00;;;;;;;10.59;100.00;98123.87;1703764;83;21101;-69
2022/04/02 02:16:04;;;;;;;26.93;6.42;;;;;;;10.58;100.00;98114.09;1736612;81;21065;-70
2022/04/02 02:18:35;;;;;;;23.75;6.58;;;;;;;10.60;100.00;98105.77;1736112;81;21060;-69
2022/04/02 02:21:03;;;;;;;28.50;6.78;;;;;;;10.59;100.00;98102.78;1761073;81;21585;-71
2022/04/02 02:23:31;;;;;;;24.18;5.47;;;;;;;10.61;100.00;98100.15;1760236;81;21038;-70
2022/04/02 02:25:59;;;;;;;23.32;5.35;;;;;;;10.63;100.00;98095.34;1736061;81;21061;-69
2022/04/02 02:28:27;;;;;;;27.02;5.72;;;;;;;10.63;100.00;98099.40;1759977;81;21069;-71
2022/04/02 02:30:55;;;;;;;25.70;5.37;;;;;;;10.60;100.00;98083.61;1760116;81;21076;-70
2022/04/02 02:36:09;;;;;;;29.12;5.78;;;;;;;10.55;100.00;98080.77;1759033;81;21052;-69
2022/04/02 02:38:50;;;;;;;23.00;6.17;;;;;;;10.53;100.00;98085.54;1754337;81;21590;-70
2022/04/02 02:41:19;;;;;;;22.50;5.42;;;;;;;10.52;100.00;98087.95;1755148;81;21022;-69
2022/04/02 02:43:49;;;;;;;23.10;5.37;;;;;;;10.52;100.00;98089.30;1760469;81;21052;-69
2022/04/02 02:46:18;;;;;;;22.58;4.95;;;;;;;10.51;100.00;98105.20;1756308;81;21033;-69
2022/04/02 02:48:47;;;;;;;27.35;5.50;;;;;;;10.50;100.00;98117.08;1755919;81;21034;-69
2022/04/02 02:51:15;;;;;;;26.17;6.00;;;;;;;10.47;100.00;98116.14;1769603;80;21010;-70
2022/04/02 02:56:12;;;;;;;30.72;6.05;;;;;;;10.36;100.00;98112.27;1711755;83;21044;-69
2022/04/02 02:58:42;;;;;;;25.37;6.20;;;;;;;10.33;100.00;98103.77;1714332;83;21136;-71
2022/04/02 03:01:11;;;;;;;28.45;5.97;;;;;;;10.28;100.00;98101.67;1714276;83;21093;-69
2022/04/02 03:03:39;;;;;;;29.95;6.97;;;;;;;10.23;100.00;98086.13;1715509;84;21527;-69
2022/04/02 03:06:08;;;;;;;25.82;6.28;;;;;;;10.20;100.00;98077.64;1734003;82;21031;-70
2022/04/02 03:08:39;;;;;;;28.87;5.90;;;;;;;10.18;100.00;98079.20;1716484;82;21046;-70
2022/04/02 03:11:07;;;;;;;27.50;5.85;;;;;;;10.16;100.00;98071.81;1714288;83;21066;-69
2022/04/02 03:13:38;;;;;;;22.55;5.70;;;;;;;10.17;100.00;98074.83;1714358;83;21066;-69
2022/04/02 03:16:07;;;;;;;28.62;6.17;;;;;;;10.18;100.00;98085.95;1715313;83;21156;-69
2022/04/02 03:18:37;;;;;;;19.98;5.50;;;;;;;10.20;100.00;98086.56;1715034;82;21625;-69
2022/04/02 03:21:06;;;;;;;24.65;6.15;;;;;;;10.22;100.00;98076.36;1714768;82;21066;-70
2022/04/02 03:23:34;;;;;;;26.23;6.05;;;;;;;10.23;100.00;98070.42;1715195;84;21042;-69
2022/04/02 03:26:03;;;;;;;26.62;5.78;;;;;;;10.24;100.00;98076.15;1714764;84;21125;-70
2022/04/02 03:28:32;;;;;;;29.57;5.83;;;;;;;10.22;100.00;98087.16;1719467;82;21054;-70
2022/04/02 03:31:00;;;;;;;30.12;6.40;;;;;;;10.20;100.00;98073.05;1716416;83;21545;-71
2022/04/02 03:33:28;;;;;;;27.93;7.90;;;;;;;10.17;100.00;98073.48;1737254;82;21018;-69
2022/04/02 03:35:57;;;;;;;30.40;6.47;;;;;;;10.17;100.00;98064.56;1713604;83;21062;-70
2022/04/02 03:38:27;;;;;;;34.98;7.03;;;;;;;10.14;100.00;98052.83;1715456;83;21106;-70
2022/04/02 03:40:57;;;;;;;26.23;6.60;;;;;;;10.13;100.00;98049.31;1715181;83;21062;-69
2022/04/02 03:43:26;;;;;;;32.88;6.42;;;;;;;10.15;100.00;98049.92;1714604;84;21062;-70
2022/04/02 03:47:07;;;;;;;28.55;6.15;;;;;;;10.16;100.00;98051.55;1715161;83;21105;-70
2022/04/02 03:48:22;;;;;;;29.95;6.50;;;;;;;10.16;100.00;98041.28;1719251;82;21023;-70
2022/04/02 03:50:50;;;;;;;24.23;6.08;;;;;;;10.15;100.00;98035.59;1714477;83;21050;-70
2022/04/02 03:53:19;;;;;;;27.80;5.80;;;;;;;10.13;100.00;98033.11;1742966;80;21072;-70
2022/04/02 03:55:50;;;;;;;29.02;5.78;;;;;;;10.15;100.00;98035.59;1691242;84;21048;-70
2022/04/02 03:58:19;;;;;;;25.48;6.42;;;;;;;10.16;100.00;98031.30;1634153;87;21078;-71
2022/04/02 04:00:47;;;;;;;22.25;5.40;;;;;;;10.16;100.00;98034.00;1606013;88;21556;-70
2022/04/02 04:03:15;;;;;;;28.42;6.37;;;;;;;10.18;100.00;98025.19;1666008;85;21037;-70
2022/04/02 04:05:44;;;;;;;26.15;6.10;;;;;;;10.20;100.00;98022.27;1623410;87;21055;-70
2022/04/02 04:08:11;;;;;;;30.85;6.10;;;;;;;10.23;100.00;98030.77;1605383;89;21110;-70
2022/04/02 04:10:41;;;;;;;29.67;5.97;;;;;;;10.29;100.00;98025.51;1628111;88;21111;-69
2022/04/02 04:13:09;;;;;;;33.23;6.42;;;;;;;10.32;100.00;98019.17;1619469;89;21031;-68
2022/04/02 04:15:40;;;;;;;32.53;6.50;;;;;;;10.36;100.00;98028.52;1615146;88;21119;-70
2022/04/02 04:18:08;;;;;;;28.32;6.70;;;;;;;10.41;100.00;98023.79;1618008;88;20999;-70
2022/04/02 04:20:36;;;;;;;27.22;6.62;;;;;;;10.46;100.00;98034.77;1601817;88;21661;-70
2022/04/02 04:23:07;;;;;;;32.35;7.05;;;;;;;10.49;100.00;98033.52;1614351;87;21115;-69
2022/04/02 04:25:34;;;;;;;30.20;6.30;;;;;;;10.51;100.00;98041.70;1619664;88;21059;-71
2022/04/02 04:28:04;;;;;;;25.92;6.22;;;;;;;10.53;100.00;98038.78;1586746;89;21076;-71
2022/04/02 04:30:31;;;;;;;30.27;6.78;;;;;;;10.55;100.00;98044.78;1677969;85;21561;-70
2022/04/02 04:33:00;;;;;;;31.25;6.15;;;;;;;10.54;100.00;98046.67;1664933;84;21528;-70
2022/04/02 04:35:27;;;;;;;27.00;5.95;;;;;;;10.56;100.00;98044.57;1714279;83;21113;-70
2022/04/02 04:37:56;;;;;;;28.57;6.25;;;;;;;10.58;100.00;98044.36;1684098;85;21117;-70
2022/04/02 04:40:25;;;;;;;23.47;6.08;;;;;;;10.61;100.00;98058.79;1682731;85;21059;-69
2022/04/02 04:42:53;;;;;;;29.15;6.33;;;;;;;10.62;100.00;98053.17;1712986;83;21010;-70
2022/04/02 04:45:22;;;;;;;28.73;7.33;;;;;;;10.66;100.00;98043.25;1682136;85;21038;-69
2022/04/02 04:47:50;;;;;;;36.88;7.03;;;;;;;10.67;100.00;98044.91;1689559;85;21054;-70
2022/04/02 04:50:20;;;;;;;27.87;6.33;;;;;;;10.69;100.00;98042.28;1711602;83;21074;-70
2022/04/02 04:52:49;;;;;;;28.20;6.42;;;;;;;10.73;100.00;98044.02;1685857;84;21547;-69
2022/04/02 04:55:16;;;;;;;24.60;6.37;;;;;;;10.80;100.00;98046.14;1684806;83;20982;-70
2022/04/02 04:57:44;;;;;;;31.27;7.25;;;;;;;10.87;100.00;98038.83;1676143;85;21073;-70
2022/04/02 05:00:17;;;;;;;25.70;5.87;;;;;;;10.95;100.00;98034.47;1657477;85;21121;-70
2022/04/02 05:02:47;;;;;;;28.70;6.47;;;;;;;11.05;100.00;98029.06;1731968;82;20965;-70
2022/04/02 05:05:16;;;;;;;30.45;5.67;;;;;;;11.10;100.00;98023.31;1736051;82;21094;-69
2022/04/02 05:07:45;;;;;;;32.67;6.97;;;;;;;11.15;100.00;98030.20;1722145;82;21098;-70
2022/04/02 05:10:14;;;;;;;33.23;7.08;;;;;;;11.19;100.00;98035.48;1741083;82;21071;-69
2022/04/02 05:12:43;;;;;;;33.25;6.28;;;;;;;11.23;100.00;98030.45;1744041;82;21031;-70
2022/04/02 05:15:13;;;;;;;33.05;6.92;;;;;;;11.30;100.00;98030.39;1739608;82;21062;-70
2022/04/02 05:17:43;;;;;;;23.87;6.85;;;;;;;11.36;100.00;98028.13;1737900;82;21051;-68
2022/04/02 05:20:13;;;;;;;28.52;7.33;;;;;;;11.44;100.00;98027.83;1741448;82;21598;-70
2022/04/02 05:22:44;;;;;;;28.42;6.70;;;;;;;11.50;100.00;98032.86;1740329;81;21066;-71
2022/04/02 05:25:12;;;;;;;28.62;6.87;;;;;;;11.56;100.00;98034.65;1745384;82;21147;-69
2022/04/02 05:27:42;;;;;;;28.35;5.85;;;;;;;11.60;100.00;98029.10;1741551;82;21066;-69
2022/04/02 05:30:11;;;;;;;29.63;6.47;;;;;;;11.67;100.00;98024.44;1742583;82;21039;-69
2022/04/02 05:32:40;;;;;;;33.00;6.35;;;;;;;11.78;100.00;98024.19;1738809;82;21533;-70
2022/04/02 05:35:08;;;;;;;33.15;7.83;;;;;;;11.87;100.00;98028.77;1739678;82;21023;-69
2022/04/02 05:37:44;;;;;;;26.20;6.80;;;;;;;11.93;100.00;98027.87;1739808;82;21579;-71
2022/04/02 05:40:15;;;;;;;33.55;7.47;;;;;;;12.02;100.00;98023.78;1738386;82;21082;-70
2022/04/02 05:42:42;;;;;;;35.08;7.75;;;;;;;12.15;100.00;98020.89;1739791;82;21047;-70
2022/04/02 05:45:10;;;;;;;33.83;6.95;;;;;;;12.31;100.00;98022.66;1741615;82;20999;-70
2022/04/02 05:47:45;;;;;;;31.65;7.37;;;;;;;12.41;100.00;98018.02;1743419;82;21023;-69
2022/04/02 05:50:13;;;;;;;30.10;7.47;;;;;;;12.44;100.00;98020.27;1728873;82;21036;-70
2022/04/02 05:52:40;;;;;;;31.97;7.87;;;;;;;12.46;100.00;98029.80;1730210;82;21071;-69
2022/04/02 05:55:10;;;;;;;27.50;6.80;;;;;;;12.46;100.00;98027.09;1765330;81;21023;-70
2022/04/02 05:57:39;;;;;;;30.88;8.00;;;;;;;12.49;100.00;98029.88;1748396;81;21010;-69
2022/04/02 06:00:08;;;;;;;27.85;6.78;;;;;;;12.53;100.00;98022.39;1751286;81;21021;-69
2022/04/02 06:02:38;;;;;;;30.23;7.00;;;;;;;12.66;100.00;98023.23;1745000;82;21014;-70
2022/04/02 06:05:08;;;;;;;24.77;6.20;;;;;;;12.82;100.00;98019.86;1750352;82;21521;-71
2022/04/02 06:07:35;;;;;;;29.30;7.15;;;;;;;12.99;100.00;98014.53;1750574;82;21502;-71
2022/04/02 06:10:04;;;;;;;37.50;8.25;;;;;;;13.17;100.00;98012.22;1752197;82;21018;-70
2022/04/02 06:12:31;;;;;;;27.05;7.12;;;;;;;13.37;100.00;98021.91;1727031;82;21033;-70
2022/04/02 06:15:00;;;;;;;24.00;6.15;;;;;;;13.54;100.00;98020.11;1751493;82;21049;-71
2022/04/02 06:17:28;;;;;;;25.90;6.37;;;;;;;13.60;100.00;98039.53;1750376;81;21026;-70
2022/04/02 06:19:55;;;;;;;28.83;7.60;;;;;;;13.64;100.00;98023.58;1752336;81;21220;-68
2022/04/02 06:22:22;;;;;;;26.48;6.78;;;;;;;13.66;100.00;98037.73;1729655;82;21507;-70
2022/04/02 06:24:49;;;;;;;24.43;6.85;;;;;;;13.84;100.00;98011.75;1721573;82;21056;-69
2022/04/02 06:27:17;;;;;;;33.00;8.35;;;;;;;13.84;100.00;98011.75;1749481;81;21041;-71
2022/04/02 06:29:45;;;;;;;27.73;6.58;;;;;;;14.09;100.00;98013.84;1729637;81;21030;-70
2022/04/02 06:32:12;;;;;;;26.57;7.00;;;;;;;14.29;100.00;97992.48;1731239;81;21076;-71
2022/04/02 06:34:40;;;;;;;27.00;6.20;;;;;;;14.38;100.00;98007.31;1756750;80;21053;-70
2022/04/02 06:37:08;;;;;;;25.48;6.35;;;;;;;14.44;100.00;98015.02;1763786;80;20998;-70
2022/04/02 06:39:37;;;;;;;26.10;5.92;;;;;;;14.66;100.00;98016.52;1764749;80;21495;-68
2022/04/02 06:42:05;;;;;;;27.25;6.00;;;;;;;14.89;100.00;98017.41;1746598;80;21096;-70
2022/04/02 06:44:35;;;;;;;33.83;6.33;;;;;;;15.04;100.00;98033.98;1759717;80;21023;-69
2022/04/02 06:47:04;;;;;;;24.47;5.85;;;;;;;15.28;100.00;98034.61;1754958;81;21038;-70
2022/04/02 06:49:31;;;;;;;26.77;6.00;;;;;;;15.48;100.00;98035.42;1739490;82;20974;-70
2022/04/02 06:51:59;;;;;;;25.17;5.55;;;;;;;15.72;100.00;98031.93;1744939;80;21007;-69
2022/04/02 06:54:27;;;;;;;28.50;5.58;;;;;;;15.89;100.00;98027.78;1773756;80;21046;-70
2022/04/02 06:56:55;;;;;;;31.37;6.35;;;;;;;16.06;100.00;98030.95;1767581;80;20993;-70
2022/04/02 06:59:22;;;;;;;20.37;6.08;;;;;;;16.21;100.00;98028.41;1725642;81;21002;-70
2022/04/02 07:01:50;;;;;;;24.23;5.78;;;;;;;16.29;100.00;98027.14;1709381;83;21059;-69
2022/04/02 07:04:19;;;;;;;25.95;5.67;;;;;;;16.49;100.00;98031.96;1747127;81;21041;-71
2022/04/02 07:06:48;;;;;;;20.30;5.45;;;;;;;16.62;100.00;98030.16;1730067;82;21033;-70
2022/04/02 07:09:17;;;;;;;17.92;4.97;;;;;;;16.74;100.00;98031.36;1772414;80;21010;-70
2022/04/02 07:11:46;;;;;;;28.12;5.72;;;;;;;16.93;100.00;98018.17;1784394;80;21048;-71
2022/04/02 07:14:14;;;;;;;24.40;5.47;;;;;;;17.13;100.00;98025.67;1776944;80;21027;-70
2022/04/02 07:16:42;;;;;;;22.10;5.70;;;;;;;17.22;100.00;98023.27;1766060;80;21007;-70
2022/04/02 07:19:10;;;;;;;27.27;5.47;;;;;;;17.31;100.00;98030.43;1771461;80;21090;-71
2022/04/02 07:21:41;;;;;;;21.35;4.80;;;;;;;17.36;100.00;98025.81;1751288;80;21042;-70
2022/04/02 07:24:10;;;;;;;28.75;5.42;;;;;;;17.38;100.00;98026.36;1719852;82;20994;-70
2022/04/02 07:26:38;;;;;;;23.80;5.65;;;;;;;17.37;100.00;98021.16;1721706;81;21066;-69
2022/04/02 07:29:06;;;;;;;24.92;4.97;;;;;;;17.63;100.00;98010.64;1770521;80;21034;-70
2022/04/02 07:31:34;;;;;;;16.97;4.65;;;;;;;17.89;100.00;98023.64;1768866;80;21542;-69
2022/04/02 07:34:01;;;;;;;16.97;4.23;;;;;;;18.09;100.00;98007.83;1753348;80;21007;-69
2022/04/02 07:36:41;;;;;;;17.75;4.00;;;;;;;18.44;100.00;98019.39;1743667;80;21471;-70
2022/04/02 07:39:47;;;;;;;16.75;3.80;;;;;;;18.48;100.00;98001.88;1742271;81;21067;-71
2022/04/02 07:42:26;;;;;;;15.95;4.00;;;;;;;18.59;100.00;98018.57;1757663;80;21069;-69
2022/04/02 07:44:58;;;;;;;16.85;4.05;;;;;;;18.74;100.00;98007.63;1766164;80;21006;-70
2022/04/02 07:47:30;;;;;;;17.87;3.40;;;;;;;18.90;100.00;98003.01;1726853;80;20997;-70
2022/04/02 07:50:13;;;;;;;16.42;3.45;;;;;;;18.89;100.00;98005.48;1769319;80;21048;-70
2022/04/02 07:52:46;;;;;;;17.32;3.80;;;;;;;18.92;100.00;97996.70;1747299;81;21023;-70
2022/04/02 07:55:13;;;;;;;13.38;3.02;;;;;;;19.06;100.00;98009.84;1763014;81;21058;-68
2022/04/02 07:57:49;;;;;;;17.40;4.28;;;;;;;19.08;100.00;98005.72;1759201;80;21015;-70
2022/04/02 08:00:20;;;;;;;12.70;2.90;;;;;;;19.16;100.00;98001.62;1751169;80;20986;-70
2022/04/02 08:02:49;;;;;;;30.97;4.35;;;;;;;19.13;100.00;97995.31;1739816;80;21057;-70
2022/04/02 08:05:22;;;;;;;15.63;3.00;;;;;;;19.10;100.00;97984.34;1743203;81;21050;-70
2022/04/02 08:07:54;;;;;;;19.45;3.70;;;;;;;19.01;100.00;97998.34;1743551;81;20971;-71
2022/04/02 08:10:23;;;;;;;14.33;3.83;;;;;;;19.08;100.00;97992.58;1714808;81;21022;-72
2022/04/02 08:12:55;;;;;;;13.85;3.72;;;;;;;19.29;100.00;97999.66;1758884;81;21634;-69
2022/04/02 08:15:22;;;;;;;16.67;3.17;;;;;;;19.51;100.00;97988.37;1759576;81;21101;-72
2022/04/02 08:17:53;;;;;;;12.40;3.45;;;;;;;19.64;100.00;98005.32;1723989;83;21073;-69
2022/04/02 08:20:21;;;;;;;18.23;4.15;;;;;;;19.73;100.00;97985.81;1683995;84;21076;-72
2022/04/02 08:22:50;;;;;;;39.35;5.78;;;;;;;19.66;100.00;97987.48;1665349;85;21063;-71
2022/04/02 08:25:18;;;;;;;12.30;3.92;;;;;;;19.67;100.00;97986.39;1682605;84;21092;-69
2022/04/02 08:28:01;;;;;;;20.90;3.95;;;;;;;19.79;100.00;97986.08;1682393;84;21013;-71
2022/04/02 08:30:34;;;;;;;15.78;4.45;;;;;;;19.72;100.00;97972.66;1757449;81;21073;-71
2022/04/02 08:33:39;;;;;;;13.15;3.60;;;;;;;19.90;100.00;97961.62;1759253;81;21026;-70
2022/04/02 08:36:29;;;;;;;15.75;4.28;;;;;;;19.98;100.00;97965.69;1703394;82;21106;-72
2022/04/02 08:39:20;;;;;;;14.53;3.65;;;;;;;20.04;100.00;97970.59;1729431;82;21056;-71
2022/04/02 08:42:09;;;;;;;14.87;3.50;;;;;;;20.13;100.00;97968.06;1688573;84;21056;-72
2022/04/02 08:44:53;;;;;;;17.15;3.83;;;;;;;19.91;100.00;97983.82;1717104;83;21097;-71
2022/04/02 08:47:49;;;;;;;18.57;4.30;;;;;;;19.73;100.00;97970.73;1700816;83;21073;-69
2022/04/02 08:50:17;;;;;;;57.05;7.15;;;;;;;19.77;100.00;97962.80;1690239;83;21550;-70
2022/04/02 08:53:30;;;;;;;20.55;4.50;;;;;;;19.86;100.00;97967.39;1724966;82;21058;-69
2022/04/02 08:56:03;;;;;;;14.20;3.40;;;;;;;19.73;100.00;97968.83;1713768;82;21064;-70
2022/04/02 08:59:05;;;;;;;16.90;3.95;;;;;;;19.59;100.00;97956.81;1697142;83;21006;-69
2022/04/02 09:01:55;;;;;;;20.40;4.03;;;;;;;19.71;100.00;97953.19;1714861;83;21046;-72
2022/04/02 09:05:13;;;;;;;11.35;3.40;;;;;;;19.82;100.00;97939.47;1685470;84;21089;-69
2022/04/02 09:08:23;;;;;;;14.18;3.85;;;;;;;20.02;100.00;97931.09;1579580;89;21616;-71
2022/04/02 09:11:23;;;;;;;15.53;3.72;;;;;;;20.06;100.00;97944.53;1586915;90;21104;-70
2022/04/02 09:14:32;;;;;;;12.03;3.65;;;;;;;20.25;100.00;97945.21;1570722;91;21057;-70
2022/04/02 09:17:42;;;;;;;18.00;3.90;;;;;;;20.10;100.00;97932.44;1584747;90;21588;-70
2022/04/02 09:20:48;;;;;;;16.07;3.87;;;;;;;19.97;100.00;97952.26;1581332;89;21122;-71
2022/04/02 09:23:43;;;;;;;11.48;3.75;;;;;;;19.76;100.00;97960.61;1560619;91;21011;-70
2022/04/02 09:26:48;;;;;;;;;;;;;;;19.85;100.00;97953.98;1574569;90;21663;-70
2022/04/02 09:29:29;;;;;;;21.73;4.58;;;;;;;20.20;100.00;97952.95;1572225;90;20445;-70
2022/04/02 09:32:20;;;;;;;17.25;4.05;;;;;;;20.13;100.00;97961.21;1598801;87;21168;-71
2022/04/02 09:35:16;;;;;;;12.60;3.60;;;;;;;19.81;100.00;97967.97;1602430;89;21094;-70
2022/04/02 09:38:15;;;;;;;14.28;3.50;;;;;;;19.41;100.00;97967.03;1586990;89;21014;-69
2022/04/02 09:40:48;;;;;;;22.25;4.47;;;;;;;19.23;100.00;97960.21;1577243;89;21091;-70
2022/04/02 09:43:31;;;;;;;16.48;4.03;;;;;;;18.98;100.00;97964.64;1605444;88;21090;-71
2022/04/02 09:46:28;;;;;;;18.85;4.50;;;;;;;18.73;100.00;97986.84;1577005;91;21105;-72
2022/04/02 09:49:18;;;;;;;14.87;3.80;;;;;;;18.22;100.00;98000.49;1609120;88;21089;-68
2022/04/02 09:51:49;;;;;;;16.80;4.90;;;;;;;17.74;100.00;97979.25;1576028;90;21060;-69
2022/04/02 09:54:47;;;;;;;16.17;4.45;;;;;;;17.39;100.00;97995.24;1549541;91;21081;-70
2022/04/02 09:57:38;;;;;;;13.55;3.98;;;;;;;17.25;100.00;97990.80;1551211;91;21119;-71
2022/04/02 10:00:08;;;;;;;19.50;4.28;;;;;;;17.43;100.00;97991.44;1529590;92;21114;-69
2022/04/02 10:03:08;;;;;;;33.18;6.20;;;;;;;17.73;100.00;97974.34;1524192;93;21122;-69
2022/04/02 10:06:05;;;;;;;20.70;4.42;;;;;;;17.84;100.00;97976.01;1538513;92;21169;-70
2022/04/02 10:08:49;;;;;;;18.92;4.60;;;;;;;17.89;100.00;97977.98;1542477;92;21089;-71
2022/04/02 10:11:17;;;;;;;21.30;4.85;;;;;;;18.05;100.00;97978.03;1540993;91;21142;-70
2022/04/02 10:13:45;;;;;;;14.78;4.58;;;;;;;18.24;100.00;97983.26;1569835;91;21134;-72
2022/04/02 10:16:13;;;;;;;20.05;5.45;;;;;;;18.28;100.00;97965.75;1513052;92;21625;-68
2022/04/02 10:18:41;;;;;;;24.32;5.65;;;;;;;18.42;100.00;97953.73;1571182;91;21115;-70
2022/04/02 10:21:08;;;;;;;24.80;6.72;;;;;;;18.56;100.00;97958.93;1568313;91;21074;-70
2022/04/02 10:23:37;;;;;;;27.75;5.97;;;;;;;18.68;100.00;97944.95;1546003;91;21077;-70
2022/04/02 10:26:16;;;;;;;25.05;6.10;;;;;;;18.92;100.00;97932.91;1538666;91;21139;-68
2022/04/02 10:28:55;;;;;;;31.15;5.92;;;;;;;19.26;100.00;97931.70;1633798;86;21016;-71
2022/04/02 10:31:41;;;;;;;49.45;8.38;;;;;;;19.47;100.00;97906.98;1667934;86;21589;-70
2022/04/02 10:34:32;;;;;;;33.02;5.78;;;;;;;19.67;100.00;97885.48;1605025;88;21160;-69
2022/04/02 10:37:18;;;;;;;25.35;4.95;;;;;;;19.93;100.00;97882.06;1585099;90;21116;-68
2022/04/02 10:40:01;;;;;;;21.55;5.47;;;;;;;20.17;100.00;97871.73;1544772;91;21598;-71
2022/04/02 10:42:34;;;;;;;20.48;5.05;;;;;;;20.27;100.00;97864.80;1604779;88;21237;-70
2022/04/02 10:45:14;;;;;;;19.55;4.95;;;;;;;20.52;100.00;97876.66;1571971;91;21092;-72
2022/04/02 10:47:59;;;;;;;24.50;4.50;;;;;;;20.76;100.00;97868.50;1614786;87;21061;-69
2022/04/02 10:50:26;;;;;;;23.42;4.55;;;;;;;20.95;96.46;97871.33;1566662;91;21142;-69
2022/04/02 10:52:54;;;;;;;53.10;7.35;;;;;;;20.93;93.98;97855.12;1558448;92;21093;-70
2022/04/02 10:55:24;;;;;;;29.63;5.28;;;;;;;20.90;90.39;97854.89;1541869;90;21174;-68
2022/04/02 10:57:52;;;;;;;18.80;4.17;;;;;;;20.66;91.60;97832.34;1529436;92;21103;-68
2022/04/02 11:00:20;;;;;;;42.58;6.70;;;;;;;20.51;95.35;97859.94;1514883;93;21559;-70
2022/04/02 11:02:49;;;;;;;61.58;8.50;;;;;;;20.62;96.26;97846.39;1518253;92;21226;-70
2022/04/02 11:05:17;;;;;;;21.07;4.90;;;;;;;20.63;96.88;97857.66;1530024;92;21188;-69
2022/04/02 11:07:48;;;;;;;25.97;5.03;;;;;;;20.69;97.04;97837.82;1536450;93;21069;-70
2022/04/02 11:10:18;;;;;;;16.27;4.10;;;;;;;20.75;95.33;97856.70;1535199;92;21085;-71
2022/04/02 11:12:48;;;;;;;24.77;5.17;;;;;;;20.74;95.75;97849.56;1520564;92;21126;-71
2022/04/02 11:15:20;;;;;;;20.17;5.15;;;;;;;20.72;96.68;97805.11;1585947;89;21152;-69
2022/04/02 11:17:49;;;;;;;33.05;5.75;;;;;;;20.87;97.81;97820.58;1652455;87;21161;-70
2022/04/02 11:20:20;;;;;;;22.77;5.20;;;;;;;21.07;94.43;97835.17;1647628;86;21045;-71
2022/04/02 11:23:02;;;;;;;22.48;5.37;;;;;;;20.94;93.64;97838.09;1642448;86;21081;-71
2022/04/02 11:25:36;;;;;;;24.25;5.33;;;;;;;20.92;93.83;97847.98;1649308;87;21035;-69
2022/04/02 11:28:15;;;;;;;18.60;4.80;;;;;;;20.63;95.17;97817.84;1699345;83;21062;-70
2022/04/02 11:30:49;;;;;;;18.42;4.08;;;;;;;20.60;96.73;97817.82;1698523;83;21093;-72
2022/04/02 11:33:25;;;;;;;21.57;5.20;;;;;;;20.53;96.79;97819.28;1728208;83;21531;-71
2022/04/02 11:36:06;;;;;;;33.05;5.65;;;;;;;20.50;97.01;97828.91;1636783;87;21542;-71
2022/04/02 11:38:42;;;;;;;24.43;5.10;;;;;;;20.60;96.20;97815.08;1655267;86;21033;-72
2022/04/02 11:41:36;;;;;;;21.97;4.90;;;;;;;20.57;94.85;97784.08;1676784;84;21058;-70
2022/04/02 11:44:09;;;;;;;26.48;5.47;;;;;;;20.28;96.84;97790.42;1678709;84;21003;-68
2022/04/02 11:47:02;;;;;;;17.73;5.10;;;;;;;20.43;97.46;97788.63;1648958;84;21070;-71
2022/04/02 11:49:32;;;;;;;20.23;4.55;;;;;;;20.69;96.18;97781.53;1700212;83;21061;-69
2022/04/02 11:52:12;;;;;;;17.57;4.33;;;;;;;20.62;96.76;97788.17;1638323;85;21515;-70
2022/04/02 11:54:54;;;;;;;18.20;4.50;;;;;;;20.62;97.73;97790.92;1604497;87;21065;-70